sensor_id;sensor_type;location;lat;lon;timestamp;P1;durP1;ratioP1;P2;durP2;ratioP2
72095;SDS011;59968;51.084;16.748;2023-12-07T00:02:06;103.40;;;39.40;;
72095;SDS011;59968;51.084;16.748;2023-12-07T00:04:35;101.60;;;40.00;;
72095;SDS011;59968;51.084;16.748;2023-12-07T00:07:03;99.50;;;39.60;;
72095;SDS011;59968;51.084;16.748;2023-12-07T00:09:33;101.00;;;39.10;;
72095;SDS011;59968;51.084;16.748;2023-12-07T00:12:02;99.30;;;38.00;;
72095;SDS011;59968;51.084;16.748;2023-12-07T00:14:31;99.10;;;39.90;;
72095;SDS011;59968;51.084;16.748;2023-12-07T00:17:00;96.90;;;37.50;;
72095;SDS011;59968;51.084;16.748;2023-12-07T00:19:29;100.50;;;38.60;;
72095;SDS011;59968;51.084;16.748;2023-12-07T00:21:58;96.30;;;37.70;;
72095;SDS011;59968;51.084;16.748;2023-12-07T00:24:27;100.90;;;38.80;;
72095;SDS011;59968;51.084;16.748;2023-12-07T00:26:56;103.50;;;37.70;;
72095;SDS011;59968;51.084;16.748;2023-12-07T00:29:28;102.90;;;38.80;;
72095;SDS011;59968;51.084;16.748;2023-12-07T00:31:56;104.50;;;38.10;;
72095;SDS011;59968;51.084;16.748;2023-12-07T00:34:28;102.90;;;39.00;;
72095;SDS011;59968;51.084;16.748;2023-12-07T00:36:58;102.30;;;37.80;;
72095;SDS011;59968;51.084;16.748;2023-12-07T00:39:27;108.20;;;40.40;;
72095;SDS011;59968;51.084;16.748;2023-12-07T00:41:55;102.80;;;38.00;;
72095;SDS011;59968;51.084;16.748;2023-12-07T00:44:28;108.20;;;40.80;;
72095;SDS011;59968;51.084;16.748;2023-12-07T00:46:57;95.40;;;38.40;;
72095;SDS011;59968;51.084;16.748;2023-12-07T00:49:29;97.10;;;37.90;;
72095;SDS011;59968;51.084;16.748;2023-12-07T00:51:58;97.80;;;36.70;;
72095;SDS011;59968;51.084;16.748;2023-12-07T00:54:29;98.90;;;38.40;;
72095;SDS011;59968;51.084;16.748;2023-12-07T00:56:58;103.60;;;38.60;;
72095;SDS011;59968;51.084;16.748;2023-12-07T00:59:29;98.70;;;38.00;;
72095;SDS011;59968;51.084;16.748;2023-12-07T01:02:03;102.90;;;39.20;;
72095;SDS011;59968;51.084;16.748;2023-12-07T01:04:51;102.00;;;37.80;;
72095;SDS011;59968;51.084;16.748;2023-12-07T01:07:20;104.20;;;37.00;;
72095;SDS011;59968;51.084;16.748;2023-12-07T01:09:50;95.60;;;37.70;;
72095;SDS011;59968;51.084;16.748;2023-12-07T01:12:19;99.30;;;39.00;;
72095;SDS011;59968;51.084;16.748;2023-12-07T01:14:48;95.40;;;36.10;;
72095;SDS011;59968;51.084;16.748;2023-12-07T01:17:17;104.40;;;37.70;;
72095;SDS011;59968;51.084;16.748;2023-12-07T01:19:46;101.80;;;37.10;;
72095;SDS011;59968;51.084;16.748;2023-12-07T01:22:15;99.80;;;37.10;;
72095;SDS011;59968;51.084;16.748;2023-12-07T01:24:43;100.90;;;39.40;;
72095;SDS011;59968;51.084;16.748;2023-12-07T01:27:12;92.70;;;36.40;;
72095;SDS011;59968;51.084;16.748;2023-12-07T01:29:41;94.10;;;36.40;;
72095;SDS011;59968;51.084;16.748;2023-12-07T01:32:09;102.00;;;36.90;;
72095;SDS011;59968;51.084;16.748;2023-12-07T01:34:37;100.30;;;36.40;;
72095;SDS011;59968;51.084;16.748;2023-12-07T01:37:06;106.60;;;39.70;;
72095;SDS011;59968;51.084;16.748;2023-12-07T01:39:35;95.60;;;36.10;;
72095;SDS011;59968;51.084;16.748;2023-12-07T01:42:04;97.10;;;36.90;;
72095;SDS011;59968;51.084;16.748;2023-12-07T01:44:33;104.00;;;37.80;;
72095;SDS011;59968;51.084;16.748;2023-12-07T01:47:01;98.10;;;37.00;;
72095;SDS011;59968;51.084;16.748;2023-12-07T01:49:30;99.20;;;37.50;;
72095;SDS011;59968;51.084;16.748;2023-12-07T01:51:59;101.90;;;38.20;;
72095;SDS011;59968;51.084;16.748;2023-12-07T01:54:29;94.20;;;37.90;;
72095;SDS011;59968;51.084;16.748;2023-12-07T01:56:58;100.90;;;37.30;;
72095;SDS011;59968;51.084;16.748;2023-12-07T01:59:27;99.80;;;37.30;;
72095;SDS011;59968;51.084;16.748;2023-12-07T02:01:56;108.10;;;38.20;;
72095;SDS011;59968;51.084;16.748;2023-12-07T02:04:25;90.90;;;34.20;;
72095;SDS011;59968;51.084;16.748;2023-12-07T02:06:53;97.70;;;35.10;;
72095;SDS011;59968;51.084;16.748;2023-12-07T02:09:27;94.60;;;35.20;;
72095;SDS011;59968;51.084;16.748;2023-12-07T02:11:56;103.10;;;36.70;;
72095;SDS011;59968;51.084;16.748;2023-12-07T02:14:29;96.00;;;35.60;;
72095;SDS011;59968;51.084;16.748;2023-12-07T02:17:02;97.90;;;36.10;;
72095;SDS011;59968;51.084;16.748;2023-12-07T02:22:52;90.50;;;33.20;;
72095;SDS011;59968;51.084;16.748;2023-12-07T02:25:32;96.00;;;34.70;;
72095;SDS011;59968;51.084;16.748;2023-12-07T02:28:05;96.00;;;34.10;;
72095;SDS011;59968;51.084;16.748;2023-12-07T02:30:35;95.70;;;35.30;;
72095;SDS011;59968;51.084;16.748;2023-12-07T02:33:03;97.30;;;34.40;;
72095;SDS011;59968;51.084;16.748;2023-12-07T02:35:33;91.70;;;34.10;;
72095;SDS011;59968;51.084;16.748;2023-12-07T02:38:03;97.10;;;34.10;;
72095;SDS011;59968;51.084;16.748;2023-12-07T02:40:34;96.30;;;34.90;;
72095;SDS011;59968;51.084;16.748;2023-12-07T02:43:04;93.80;;;35.30;;
72095;SDS011;59968;51.084;16.748;2023-12-07T02:45:33;97.40;;;36.70;;
72095;SDS011;59968;51.084;16.748;2023-12-07T02:48:02;97.80;;;36.60;;
72095;SDS011;59968;51.084;16.748;2023-12-07T02:50:31;98.50;;;36.60;;
72095;SDS011;59968;51.084;16.748;2023-12-07T02:52:59;96.60;;;36.60;;
72095;SDS011;59968;51.084;16.748;2023-12-07T02:55:28;100.80;;;36.30;;
72095;SDS011;59968;51.084;16.748;2023-12-07T02:57:57;100.50;;;36.70;;
72095;SDS011;59968;51.084;16.748;2023-12-07T03:00:25;102.60;;;37.30;;
72095;SDS011;59968;51.084;16.748;2023-12-07T03:02:54;97.40;;;34.90;;
72095;SDS011;59968;51.084;16.748;2023-12-07T03:05:23;98.60;;;35.50;;
72095;SDS011;59968;51.084;16.748;2023-12-07T03:07:52;90.20;;;33.90;;
72095;SDS011;59968;51.084;16.748;2023-12-07T03:10:20;99.90;;;37.00;;
72095;SDS011;59968;51.084;16.748;2023-12-07T03:12:49;101.00;;;37.10;;
72095;SDS011;59968;51.084;16.748;2023-12-07T03:15:17;96.30;;;35.40;;
72095;SDS011;59968;51.084;16.748;2023-12-07T03:17:46;90.50;;;34.00;;
72095;SDS011;59968;51.084;16.748;2023-12-07T03:20:15;103.10;;;35.80;;
72095;SDS011;59968;51.084;16.748;2023-12-07T03:22:43;95.50;;;36.00;;
72095;SDS011;59968;51.084;16.748;2023-12-07T03:25:13;99.90;;;37.80;;
72095;SDS011;59968;51.084;16.748;2023-12-07T03:27:41;89.10;;;33.40;;
72095;SDS011;59968;51.084;16.748;2023-12-07T03:30:10;94.80;;;34.70;;
72095;SDS011;59968;51.084;16.748;2023-12-07T03:32:39;94.60;;;34.90;;
72095;SDS011;59968;51.084;16.748;2023-12-07T03:35:07;93.10;;;33.40;;
72095;SDS011;59968;51.084;16.748;2023-12-07T03:37:35;92.90;;;35.30;;
72095;SDS011;59968;51.084;16.748;2023-12-07T03:40:04;89.80;;;33.90;;
72095;SDS011;59968;51.084;16.748;2023-12-07T03:42:33;95.50;;;35.50;;
72095;SDS011;59968;51.084;16.748;2023-12-07T03:45:22;90.90;;;32.30;;
72095;SDS011;59968;51.084;16.748;2023-12-07T03:47:51;89.60;;;32.10;;
72095;SDS011;59968;51.084;16.748;2023-12-07T03:50:19;96.40;;;34.70;;
72095;SDS011;59968;51.084;16.748;2023-12-07T03:52:48;97.60;;;34.90;;
72095;SDS011;59968;51.084;16.748;2023-12-07T03:55:17;97.80;;;35.10;;
72095;SDS011;59968;51.084;16.748;2023-12-07T03:57:45;98.80;;;35.80;;
72095;SDS011;59968;51.084;16.748;2023-12-07T04:00:14;110.50;;;37.10;;
72095;SDS011;59968;51.084;16.748;2023-12-07T04:02:43;104.20;;;37.20;;
72095;SDS011;59968;51.084;16.748;2023-12-07T04:05:11;102.20;;;36.80;;
72095;SDS011;59968;51.084;16.748;2023-12-07T04:07:40;100.90;;;36.40;;
72095;SDS011;59968;51.084;16.748;2023-12-07T04:10:10;101.30;;;34.70;;
72095;SDS011;59968;51.084;16.748;2023-12-07T04:12:39;109.70;;;36.10;;
72095;SDS011;59968;51.084;16.748;2023-12-07T04:15:08;112.00;;;37.10;;
72095;SDS011;59968;51.084;16.748;2023-12-07T04:17:36;119.60;;;38.30;;
72095;SDS011;59968;51.084;16.748;2023-12-07T04:20:05;128.40;;;38.60;;
72095;SDS011;59968;51.084;16.748;2023-12-07T04:22:35;147.20;;;41.30;;
72095;SDS011;59968;51.084;16.748;2023-12-07T04:25:04;130.00;;;40.00;;
72095;SDS011;59968;51.084;16.748;2023-12-07T04:27:33;135.30;;;39.10;;
72095;SDS011;59968;51.084;16.748;2023-12-07T04:30:02;121.80;;;35.60;;
72095;SDS011;59968;51.084;16.748;2023-12-07T04:32:31;139.90;;;39.90;;
72095;SDS011;59968;51.084;16.748;2023-12-07T04:35:00;131.90;;;39.80;;
72095;SDS011;59968;51.084;16.748;2023-12-07T04:37:29;136.70;;;38.80;;
72095;SDS011;59968;51.084;16.748;2023-12-07T04:39:57;125.00;;;39.00;;
72095;SDS011;59968;51.084;16.748;2023-12-07T04:42:27;124.50;;;38.70;;
72095;SDS011;59968;51.084;16.748;2023-12-07T04:44:55;135.60;;;40.90;;
72095;SDS011;59968;51.084;16.748;2023-12-07T04:47:24;121.40;;;38.20;;
72095;SDS011;59968;51.084;16.748;2023-12-07T04:49:53;117.40;;;36.70;;
72095;SDS011;59968;51.084;16.748;2023-12-07T04:52:21;113.00;;;36.10;;
72095;SDS011;59968;51.084;16.748;2023-12-07T04:54:50;114.00;;;34.90;;
72095;SDS011;59968;51.084;16.748;2023-12-07T04:57:18;96.90;;;31.30;;
72095;SDS011;59968;51.084;16.748;2023-12-07T04:59:47;103.60;;;32.30;;
72095;SDS011;59968;51.084;16.748;2023-12-07T05:02:17;104.70;;;31.50;;
72095;SDS011;59968;51.084;16.748;2023-12-07T05:04:46;99.90;;;33.50;;
72095;SDS011;59968;51.084;16.748;2023-12-07T05:07:15;93.90;;;30.80;;
72095;SDS011;59968;51.084;16.748;2023-12-07T05:09:43;101.20;;;31.70;;
72095;SDS011;59968;51.084;16.748;2023-12-07T05:12:12;96.70;;;30.70;;
72095;SDS011;59968;51.084;16.748;2023-12-07T05:14:41;93.80;;;28.80;;
72095;SDS011;59968;51.084;16.748;2023-12-07T05:17:09;96.90;;;29.50;;
72095;SDS011;59968;51.084;16.748;2023-12-07T05:19:38;85.80;;;26.70;;
72095;SDS011;59968;51.084;16.748;2023-12-07T05:22:07;76.90;;;24.80;;
72095;SDS011;59968;51.084;16.748;2023-12-07T05:24:36;80.50;;;25.30;;
72095;SDS011;59968;51.084;16.748;2023-12-07T05:27:04;90.70;;;28.70;;
72095;SDS011;59968;51.084;16.748;2023-12-07T05:29:33;82.90;;;28.00;;
72095;SDS011;59968;51.084;16.748;2023-12-07T05:32:01;45.90;;;15.90;;
72095;SDS011;59968;51.084;16.748;2023-12-07T05:34:30;80.50;;;26.20;;
72095;SDS011;59968;51.084;16.748;2023-12-07T05:36:59;64.60;;;22.80;;
72095;SDS011;59968;51.084;16.748;2023-12-07T05:39:29;61.40;;;21.00;;
72095;SDS011;59968;51.084;16.748;2023-12-07T05:41:58;76.90;;;24.50;;
72095;SDS011;59968;51.084;16.748;2023-12-07T05:44:27;65.00;;;21.50;;
72095;SDS011;59968;51.084;16.748;2023-12-07T05:46:56;71.00;;;22.50;;
72095;SDS011;59968;51.084;16.748;2023-12-07T05:49:28;55.20;;;19.00;;
72095;SDS011;59968;51.084;16.748;2023-12-07T05:51:56;61.60;;;20.20;;
72095;SDS011;59968;51.084;16.748;2023-12-07T05:54:25;47.70;;;15.80;;
72095;SDS011;59968;51.084;16.748;2023-12-07T05:56:54;71.20;;;23.00;;
72095;SDS011;59968;51.084;16.748;2023-12-07T05:59:22;66.00;;;22.10;;
72095;SDS011;59968;51.084;16.748;2023-12-07T06:01:51;65.30;;;22.50;;
72095;SDS011;59968;51.084;16.748;2023-12-07T06:04:21;59.30;;;20.00;;
72095;SDS011;59968;51.084;16.748;2023-12-07T06:06:50;63.70;;;22.30;;
72095;SDS011;59968;51.084;16.748;2023-12-07T06:09:19;63.80;;;22.10;;
72095;SDS011;59968;51.084;16.748;2023-12-07T06:11:48;62.40;;;20.80;;
72095;SDS011;59968;51.084;16.748;2023-12-07T06:14:17;65.40;;;21.70;;
72095;SDS011;59968;51.084;16.748;2023-12-07T06:16:45;64.80;;;21.60;;
72095;SDS011;59968;51.084;16.748;2023-12-07T06:19:14;47.40;;;17.20;;
72095;SDS011;59968;51.084;16.748;2023-12-07T06:21:43;51.60;;;16.70;;
72095;SDS011;59968;51.084;16.748;2023-12-07T06:24:15;61.10;;;20.30;;
72095;SDS011;59968;51.084;16.748;2023-12-07T06:26:43;65.70;;;22.80;;
72095;SDS011;59968;51.084;16.748;2023-12-07T06:29:12;63.10;;;22.10;;
72095;SDS011;59968;51.084;16.748;2023-12-07T06:31:44;64.00;;;22.00;;
72095;SDS011;59968;51.084;16.748;2023-12-07T06:34:13;51.50;;;17.30;;
72095;SDS011;59968;51.084;16.748;2023-12-07T06:36:42;57.90;;;20.30;;
72095;SDS011;59968;51.084;16.748;2023-12-07T06:39:12;46.60;;;15.40;;
72095;SDS011;59968;51.084;16.748;2023-12-07T06:41:41;63.50;;;21.90;;
72095;SDS011;59968;51.084;16.748;2023-12-07T06:44:09;58.30;;;20.50;;
72095;SDS011;59968;51.084;16.748;2023-12-07T06:46:37;55.90;;;19.90;;
72095;SDS011;59968;51.084;16.748;2023-12-07T06:49:07;54.30;;;19.80;;
72095;SDS011;59968;51.084;16.748;2023-12-07T06:51:36;57.10;;;19.40;;
72095;SDS011;59968;51.084;16.748;2023-12-07T06:54:05;54.00;;;18.90;;
72095;SDS011;59968;51.084;16.748;2023-12-07T06:56:34;59.80;;;21.10;;
72095;SDS011;59968;51.084;16.748;2023-12-07T06:59:03;54.90;;;17.70;;
72095;SDS011;59968;51.084;16.748;2023-12-07T07:01:32;56.00;;;18.20;;
72095;SDS011;59968;51.084;16.748;2023-12-07T07:04:01;61.20;;;19.40;;
72095;SDS011;59968;51.084;16.748;2023-12-07T07:06:30;63.40;;;19.00;;
72095;SDS011;59968;51.084;16.748;2023-12-07T07:08:59;56.30;;;18.40;;
72095;SDS011;59968;51.084;16.748;2023-12-07T07:11:27;46.70;;;15.10;;
72095;SDS011;59968;51.084;16.748;2023-12-07T07:13:57;59.50;;;19.00;;
72095;SDS011;59968;51.084;16.748;2023-12-07T07:16:26;56.00;;;16.70;;
72095;SDS011;59968;51.084;16.748;2023-12-07T07:18:55;45.60;;;14.10;;
72095;SDS011;59968;51.084;16.748;2023-12-07T07:21:24;41.80;;;14.50;;
72095;SDS011;59968;51.084;16.748;2023-12-07T07:23:52;47.20;;;15.50;;
72095;SDS011;59968;51.084;16.748;2023-12-07T07:26:21;49.50;;;17.50;;
72095;SDS011;59968;51.084;16.748;2023-12-07T07:28:52;46.20;;;16.40;;
72095;SDS011;59968;51.084;16.748;2023-12-07T07:31:21;44.30;;;15.60;;
72095;SDS011;59968;51.084;16.748;2023-12-07T07:33:50;43.40;;;15.50;;
72095;SDS011;59968;51.084;16.748;2023-12-07T07:36:28;38.10;;;14.00;;
72095;SDS011;59968;51.084;16.748;2023-12-07T07:38:57;44.20;;;16.20;;
72095;SDS011;59968;51.084;16.748;2023-12-07T07:41:27;29.50;;;10.80;;
72095;SDS011;59968;51.084;16.748;2023-12-07T07:43:56;40.00;;;15.20;;
72095;SDS011;59968;51.084;16.748;2023-12-07T07:46:29;42.50;;;14.70;;
72095;SDS011;59968;51.084;16.748;2023-12-07T07:48:58;40.60;;;15.40;;
72095;SDS011;59968;51.084;16.748;2023-12-07T07:51:28;36.30;;;13.70;;
72095;SDS011;59968;51.084;16.748;2023-12-07T07:53:58;32.00;;;11.90;;
72095;SDS011;59968;51.084;16.748;2023-12-07T07:56:28;33.90;;;12.70;;
72095;SDS011;59968;51.084;16.748;2023-12-07T07:58:59;41.60;;;15.40;;
72095;SDS011;59968;51.084;16.748;2023-12-07T08:01:29;32.20;;;12.40;;
72095;SDS011;59968;51.084;16.748;2023-12-07T08:03:59;35.90;;;13.90;;
72095;SDS011;59968;51.084;16.748;2023-12-07T08:06:29;35.70;;;14.50;;
72095;SDS011;59968;51.084;16.748;2023-12-07T08:09:03;38.40;;;15.50;;
72095;SDS011;59968;51.084;16.748;2023-12-07T08:11:33;26.70;;;10.20;;
72095;SDS011;59968;51.084;16.748;2023-12-07T08:14:02;31.60;;;12.60;;
72095;SDS011;59968;51.084;16.748;2023-12-07T08:16:31;32.20;;;12.80;;
72095;SDS011;59968;51.084;16.748;2023-12-07T08:19:01;33.90;;;13.60;;
72095;SDS011;59968;51.084;16.748;2023-12-07T08:21:30;34.90;;;13.50;;
72095;SDS011;59968;51.084;16.748;2023-12-07T08:24:00;37.50;;;12.80;;
72095;SDS011;59968;51.084;16.748;2023-12-07T08:26:29;33.00;;;13.60;;
72095;SDS011;59968;51.084;16.748;2023-12-07T08:28:59;33.10;;;13.10;;
72095;SDS011;59968;51.084;16.748;2023-12-07T08:31:28;32.40;;;13.70;;
72095;SDS011;59968;51.084;16.748;2023-12-07T08:33:58;37.90;;;14.20;;
72095;SDS011;59968;51.084;16.748;2023-12-07T08:36:39;37.70;;;14.20;;
72095;SDS011;59968;51.084;16.748;2023-12-07T08:39:08;27.40;;;10.90;;
72095;SDS011;59968;51.084;16.748;2023-12-07T08:41:38;27.90;;;11.40;;
72095;SDS011;59968;51.084;16.748;2023-12-07T08:44:07;33.60;;;13.00;;
72095;SDS011;59968;51.084;16.748;2023-12-07T08:46:36;27.00;;;11.00;;
72095;SDS011;59968;51.084;16.748;2023-12-07T08:49:05;27.60;;;11.90;;
72095;SDS011;59968;51.084;16.748;2023-12-07T08:51:35;30.00;;;11.00;;
72095;SDS011;59968;51.084;16.748;2023-12-07T08:54:04;31.10;;;12.30;;
72095;SDS011;59968;51.084;16.748;2023-12-07T08:56:34;28.30;;;12.10;;
72095;SDS011;59968;51.084;16.748;2023-12-07T08:59:03;29.20;;;12.10;;
72095;SDS011;59968;51.084;16.748;2023-12-07T09:01:31;26.80;;;11.10;;
72095;SDS011;59968;51.084;16.748;2023-12-07T09:04:01;34.50;;;13.10;;
72095;SDS011;59968;51.084;16.748;2023-12-07T09:06:30;29.50;;;12.20;;
72095;SDS011;59968;51.084;16.748;2023-12-07T09:09:00;24.40;;;10.20;;
72095;SDS011;59968;51.084;16.748;2023-12-07T09:11:28;24.50;;;10.70;;
72095;SDS011;59968;51.084;16.748;2023-12-07T09:13:57;25.10;;;10.40;;
72095;SDS011;59968;51.084;16.748;2023-12-07T09:16:26;27.80;;;11.60;;
72095;SDS011;59968;51.084;16.748;2023-12-07T09:18:55;28.80;;;12.00;;
72095;SDS011;59968;51.084;16.748;2023-12-07T09:21:24;29.80;;;13.40;;
72095;SDS011;59968;51.084;16.748;2023-12-07T09:23:54;30.10;;;12.90;;
72095;SDS011;59968;51.084;16.748;2023-12-07T09:26:23;28.00;;;11.60;;
72095;SDS011;59968;51.084;16.748;2023-12-07T09:28:52;26.90;;;11.70;;
72095;SDS011;59968;51.084;16.748;2023-12-07T09:31:21;28.90;;;12.40;;
72095;SDS011;59968;51.084;16.748;2023-12-07T09:33:51;30.70;;;12.50;;
72095;SDS011;59968;51.084;16.748;2023-12-07T09:36:22;30.50;;;11.50;;
72095;SDS011;59968;51.084;16.748;2023-12-07T09:38:52;24.80;;;11.10;;
72095;SDS011;59968;51.084;16.748;2023-12-07T09:41:23;23.40;;;10.50;;
72095;SDS011;59968;51.084;16.748;2023-12-07T09:43:52;25.30;;;11.30;;
72095;SDS011;59968;51.084;16.748;2023-12-07T09:46:21;26.90;;;11.70;;
72095;SDS011;59968;51.084;16.748;2023-12-07T09:48:50;24.50;;;10.80;;
72095;SDS011;59968;51.084;16.748;2023-12-07T09:51:20;24.00;;;9.70;;
72095;SDS011;59968;51.084;16.748;2023-12-07T09:53:53;18.20;;;8.30;;
72095;SDS011;59968;51.084;16.748;2023-12-07T09:56:23;23.50;;;10.90;;
72095;SDS011;59968;51.084;16.748;2023-12-07T09:58:52;23.10;;;9.90;;
72095;SDS011;59968;51.084;16.748;2023-12-07T10:01:21;25.10;;;10.20;;
72095;SDS011;59968;51.084;16.748;2023-12-07T10:04:19;19.50;;;8.40;;
72095;SDS011;59968;51.084;16.748;2023-12-07T10:06:47;21.40;;;9.90;;
72095;SDS011;59968;51.084;16.748;2023-12-07T10:09:17;23.30;;;10.10;;
72095;SDS011;59968;51.084;16.748;2023-12-07T10:12:03;22.60;;;10.00;;
72095;SDS011;59968;51.084;16.748;2023-12-07T10:14:34;18.40;;;8.40;;
72095;SDS011;59968;51.084;16.748;2023-12-07T10:17:03;24.70;;;10.70;;
72095;SDS011;59968;51.084;16.748;2023-12-07T10:19:32;24.70;;;11.40;;
72095;SDS011;59968;51.084;16.748;2023-12-07T10:22:05;22.30;;;9.40;;
72095;SDS011;59968;51.084;16.748;2023-12-07T10:24:41;24.10;;;10.30;;
72095;SDS011;59968;51.084;16.748;2023-12-07T10:27:11;23.30;;;10.40;;
72095;SDS011;59968;51.084;16.748;2023-12-07T10:29:40;22.60;;;10.50;;
72095;SDS011;59968;51.084;16.748;2023-12-07T10:32:10;20.50;;;8.60;;
72095;SDS011;59968;51.084;16.748;2023-12-07T10:34:39;19.30;;;9.80;;
72095;SDS011;59968;51.084;16.748;2023-12-07T10:37:08;20.70;;;10.20;;
72095;SDS011;59968;51.084;16.748;2023-12-07T10:39:37;20.90;;;9.10;;
72095;SDS011;59968;51.084;16.748;2023-12-07T10:42:06;20.80;;;8.80;;
72095;SDS011;59968;51.084;16.748;2023-12-07T10:44:41;20.30;;;9.60;;
72095;SDS011;59968;51.084;16.748;2023-12-07T10:47:13;22.50;;;9.60;;
72095;SDS011;59968;51.084;16.748;2023-12-07T10:49:43;20.10;;;9.10;;
72095;SDS011;59968;51.084;16.748;2023-12-07T10:52:16;21.90;;;10.00;;
72095;SDS011;59968;51.084;16.748;2023-12-07T10:54:53;19.60;;;9.60;;
72095;SDS011;59968;51.084;16.748;2023-12-07T10:57:32;22.10;;;10.70;;
72095;SDS011;59968;51.084;16.748;2023-12-07T11:00:09;20.10;;;9.90;;
72095;SDS011;59968;51.084;16.748;2023-12-07T11:02:40;23.90;;;11.30;;
72095;SDS011;59968;51.084;16.748;2023-12-07T11:05:11;24.50;;;11.80;;
72095;SDS011;59968;51.084;16.748;2023-12-07T11:07:47;25.50;;;11.10;;
72095;SDS011;59968;51.084;16.748;2023-12-07T11:10:20;24.80;;;10.60;;
72095;SDS011;59968;51.084;16.748;2023-12-07T11:13:05;21.10;;;10.10;;
72095;SDS011;59968;51.084;16.748;2023-12-07T11:15:44;23.40;;;9.70;;
72095;SDS011;59968;51.084;16.748;2023-12-07T11:18:15;19.00;;;8.50;;
72095;SDS011;59968;51.084;16.748;2023-12-07T11:20:45;20.70;;;9.70;;
72095;SDS011;59968;51.084;16.748;2023-12-07T11:23:17;17.80;;;8.90;;
72095;SDS011;59968;51.084;16.748;2023-12-07T11:25:47;19.90;;;9.10;;
72095;SDS011;59968;51.084;16.748;2023-12-07T11:28:18;21.60;;;9.90;;
72095;SDS011;59968;51.084;16.748;2023-12-07T11:31:03;20.10;;;9.70;;
72095;SDS011;59968;51.084;16.748;2023-12-07T11:33:32;22.30;;;11.10;;
72095;SDS011;59968;51.084;16.748;2023-12-07T11:38:29;22.00;;;10.40;;
72095;SDS011;59968;51.084;16.748;2023-12-07T11:40:59;24.20;;;11.30;;
72095;SDS011;59968;51.084;16.748;2023-12-07T11:46:09;24.50;;;10.80;;
72095;SDS011;59968;51.084;16.748;2023-12-07T11:48:38;26.10;;;11.80;;
72095;SDS011;59968;51.084;16.748;2023-12-07T11:51:07;25.80;;;12.50;;
72095;SDS011;59968;51.084;16.748;2023-12-07T11:53:37;28.50;;;12.30;;
72095;SDS011;59968;51.084;16.748;2023-12-07T11:56:10;25.40;;;12.20;;
72095;SDS011;59968;51.084;16.748;2023-12-07T11:58:41;29.90;;;12.70;;
72095;SDS011;59968;51.084;16.748;2023-12-07T12:01:13;26.90;;;12.20;;
72095;SDS011;59968;51.084;16.748;2023-12-07T12:03:42;28.50;;;12.80;;
72095;SDS011;59968;51.084;16.748;2023-12-07T12:06:11;28.10;;;13.40;;
72095;SDS011;59968;51.084;16.748;2023-12-07T12:08:40;26.80;;;11.90;;
72095;SDS011;59968;51.084;16.748;2023-12-07T12:11:11;27.50;;;11.90;;
72095;SDS011;59968;51.084;16.748;2023-12-07T12:13:40;25.30;;;11.60;;
72095;SDS011;59968;51.084;16.748;2023-12-07T12:16:09;26.20;;;11.50;;
72095;SDS011;59968;51.084;16.748;2023-12-07T12:18:39;27.20;;;12.10;;
72095;SDS011;59968;51.084;16.748;2023-12-07T12:21:09;25.90;;;12.10;;
72095;SDS011;59968;51.084;16.748;2023-12-07T12:23:39;25.90;;;11.60;;
72095;SDS011;59968;51.084;16.748;2023-12-07T12:26:09;24.80;;;11.10;;
72095;SDS011;59968;51.084;16.748;2023-12-07T12:28:39;27.10;;;11.70;;
72095;SDS011;59968;51.084;16.748;2023-12-07T12:31:12;26.00;;;12.00;;
72095;SDS011;59968;51.084;16.748;2023-12-07T12:33:42;25.70;;;10.90;;
72095;SDS011;59968;51.084;16.748;2023-12-07T12:36:11;25.20;;;10.60;;
72095;SDS011;59968;51.084;16.748;2023-12-07T12:38:40;24.80;;;11.10;;
72095;SDS011;59968;51.084;16.748;2023-12-07T12:41:12;23.90;;;10.90;;
72095;SDS011;59968;51.084;16.748;2023-12-07T12:43:42;24.00;;;11.80;;
72095;SDS011;59968;51.084;16.748;2023-12-07T12:46:13;24.90;;;11.00;;
72095;SDS011;59968;51.084;16.748;2023-12-07T12:48:57;30.90;;;13.60;;
72095;SDS011;59968;51.084;16.748;2023-12-07T12:51:29;26.40;;;11.80;;
72095;SDS011;59968;51.084;16.748;2023-12-07T12:54:00;28.60;;;13.00;;
72095;SDS011;59968;51.084;16.748;2023-12-07T12:56:29;27.90;;;12.80;;
72095;SDS011;59968;51.084;16.748;2023-12-07T12:58:59;30.10;;;13.40;;
72095;SDS011;59968;51.084;16.748;2023-12-07T13:01:33;26.30;;;12.10;;
72095;SDS011;59968;51.084;16.748;2023-12-07T13:04:03;25.50;;;12.00;;
72095;SDS011;59968;51.084;16.748;2023-12-07T13:06:33;25.90;;;12.20;;
72095;SDS011;59968;51.084;16.748;2023-12-07T13:09:02;25.40;;;11.60;;
72095;SDS011;59968;51.084;16.748;2023-12-07T13:11:31;28.00;;;12.10;;
72095;SDS011;59968;51.084;16.748;2023-12-07T13:14:01;25.10;;;11.60;;
72095;SDS011;59968;51.084;16.748;2023-12-07T13:16:37;22.20;;;10.30;;
72095;SDS011;59968;51.084;16.748;2023-12-07T13:19:07;23.80;;;11.10;;
72095;SDS011;59968;51.084;16.748;2023-12-07T13:21:37;25.40;;;11.80;;
72095;SDS011;59968;51.084;16.748;2023-12-07T13:24:06;24.20;;;11.80;;
72095;SDS011;59968;51.084;16.748;2023-12-07T13:26:41;28.60;;;12.90;;
72095;SDS011;59968;51.084;16.748;2023-12-07T13:29:10;29.60;;;13.20;;
72095;SDS011;59968;51.084;16.748;2023-12-07T13:31:49;31.90;;;14.40;;
72095;SDS011;59968;51.084;16.748;2023-12-07T13:34:19;33.00;;;15.40;;
72095;SDS011;59968;51.084;16.748;2023-12-07T13:36:52;30.60;;;13.50;;
72095;SDS011;59968;51.084;16.748;2023-12-07T13:39:21;35.30;;;14.50;;
72095;SDS011;59968;51.084;16.748;2023-12-07T13:41:59;33.70;;;14.70;;
72095;SDS011;59968;51.084;16.748;2023-12-07T13:44:32;32.90;;;14.10;;
72095;SDS011;59968;51.084;16.748;2023-12-07T13:47:02;34.80;;;15.10;;
72095;SDS011;59968;51.084;16.748;2023-12-07T13:49:33;37.70;;;16.30;;
72095;SDS011;59968;51.084;16.748;2023-12-07T13:52:04;32.30;;;14.80;;
72095;SDS011;59968;51.084;16.748;2023-12-07T13:54:38;30.40;;;14.10;;
72095;SDS011;59968;51.084;16.748;2023-12-07T13:57:22;29.70;;;13.50;;
72095;SDS011;59968;51.084;16.748;2023-12-07T13:59:55;26.80;;;13.30;;
72095;SDS011;59968;51.084;16.748;2023-12-07T14:02:29;25.80;;;12.40;;
72095;SDS011;59968;51.084;16.748;2023-12-07T14:05:00;25.70;;;12.00;;
72095;SDS011;59968;51.084;16.748;2023-12-07T14:07:33;29.90;;;12.60;;
72095;SDS011;59968;51.084;16.748;2023-12-07T14:10:05;26.70;;;12.60;;
72095;SDS011;59968;51.084;16.748;2023-12-07T14:12:42;28.30;;;13.00;;
72095;SDS011;59968;51.084;16.748;2023-12-07T14:15:16;28.00;;;13.30;;
72095;SDS011;59968;51.084;16.748;2023-12-07T14:17:57;27.90;;;12.80;;
72095;SDS011;59968;51.084;16.748;2023-12-07T14:20:30;25.50;;;11.50;;
72095;SDS011;59968;51.084;16.748;2023-12-07T14:23:22;28.20;;;13.30;;
72095;SDS011;59968;51.084;16.748;2023-12-07T14:25:53;28.80;;;13.50;;
72095;SDS011;59968;51.084;16.748;2023-12-07T14:28:32;30.80;;;13.20;;
72095;SDS011;59968;51.084;16.748;2023-12-07T14:31:03;31.40;;;14.20;;
72095;SDS011;59968;51.084;16.748;2023-12-07T14:33:34;32.20;;;13.90;;
72095;SDS011;59968;51.084;16.748;2023-12-07T14:36:05;30.70;;;14.00;;